createdAt,value
2023-05-08T00:01:05.109Z,19.10
2023-05-08T00:03:32.316Z,19.10
2023-05-08T00:05:59.676Z,19.00
2023-05-08T00:08:26.751Z,19.00
2023-05-08T00:10:53.588Z,19.00
2023-05-08T00:13:20.812Z,19.00
2023-05-08T00:15:47.997Z,19.00
2023-05-08T00:18:14.989Z,19.00
2023-05-08T00:20:42.070Z,19.00
2023-05-08T00:23:08.940Z,18.90
2023-05-08T00:25:35.738Z,18.90
2023-05-08T00:28:02.649Z,18.90
2023-05-08T00:30:29.648Z,18.90
2023-05-08T00:32:56.661Z,18.90
2023-05-08T00:35:23.831Z,18.80
2023-05-08T00:37:50.673Z,18.80
2023-05-08T00:40:17.639Z,18.80
2023-05-08T00:42:44.552Z,18.80
2023-05-08T00:45:11.581Z,18.80
2023-05-08T00:47:38.908Z,18.80
2023-05-08T00:50:06.851Z,18.80
2023-05-08T00:52:33.974Z,18.80
2023-05-08T00:55:02.608Z,18.70
2023-05-08T00:57:32.445Z,18.70
2023-05-08T01:00:01.375Z,18.70
2023-05-08T01:02:31.555Z,18.70
2023-05-08T01:04:58.859Z,18.70
2023-05-08T01:07:26.150Z,18.70
2023-05-08T01:09:53.507Z,18.70
2023-05-08T01:12:47.743Z,18.60
2023-05-08T01:15:20.963Z,18.60
2023-05-08T01:18:08.824Z,18.60
2023-05-08T01:20:40.733Z,18.50
2023-05-08T01:23:20.099Z,18.50
2023-05-08T01:25:53.033Z,18.50
2023-05-08T01:28:35.304Z,18.40
2023-05-08T01:31:26.291Z,18.40
2023-05-08T01:33:59.188Z,18.40
2023-05-08T01:36:40.515Z,18.30
2023-05-08T01:39:22.623Z,18.30
2023-05-08T01:41:58.838Z,18.30
2023-05-08T01:44:32.037Z,18.30
2023-05-08T01:47:02.283Z,18.20
2023-05-08T01:49:38.612Z,18.20
2023-05-08T01:52:21.336Z,18.20
2023-05-08T01:54:58.804Z,18.20
2023-05-08T01:57:29.017Z,18.20
2023-05-08T01:59:59.948Z,18.10
2023-05-08T02:02:30.218Z,18.10
2023-05-08T02:04:58.360Z,18.10
2023-05-08T02:07:26.763Z,18.10
2023-05-08T02:09:55.531Z,18.10
2023-05-08T02:12:23.145Z,18.10
2023-05-08T02:14:52.999Z,18.00
2023-05-08T02:17:21.084Z,18.00
2023-05-08T02:19:49.628Z,18.00
2023-05-08T02:22:18.220Z,18.00
2023-05-08T02:24:46.580Z,18.00
2023-05-08T02:27:14.815Z,18.10
2023-05-08T02:29:42.843Z,18.10
2023-05-08T02:32:10.397Z,18.00
2023-05-08T02:34:40.944Z,18.00
2023-05-08T02:37:13.536Z,18.00
2023-05-08T02:39:42.639Z,18.00
2023-05-08T02:42:09.934Z,18.00
2023-05-08T02:44:37.132Z,18.00
2023-05-08T02:47:22.268Z,18.00
2023-05-08T02:49:53.362Z,18.00
2023-05-08T02:52:25.118Z,17.90
2023-05-08T02:54:57.521Z,17.90
2023-05-08T02:57:37.669Z,17.80
2023-05-08T03:00:14.230Z,17.90
2023-05-08T03:02:48.033Z,17.80
2023-05-08T03:05:24.553Z,17.80
2023-05-08T03:07:54.734Z,17.80
2023-05-08T03:10:25.228Z,17.70
2023-05-08T03:12:56.021Z,17.70
2023-05-08T03:15:44.793Z,17.70
2023-05-08T03:18:20.367Z,17.70
2023-05-08T03:20:51.161Z,17.60
2023-05-08T03:23:21.663Z,17.60
2023-05-08T03:25:48.825Z,17.60
2023-05-08T03:28:19.408Z,17.60
2023-05-08T03:30:47.095Z,17.60
2023-05-08T03:33:17.618Z,17.50
2023-05-08T03:35:46.367Z,17.50
2023-05-08T03:38:13.678Z,17.50
2023-05-08T03:40:42.820Z,17.50
2023-05-08T03:43:12.083Z,17.50
2023-05-08T03:45:41.060Z,17.50
2023-05-08T03:48:09.640Z,17.50
2023-05-08T03:50:38.611Z,17.40
2023-05-08T03:53:08.543Z,17.40
2023-05-08T03:55:36.466Z,17.30
2023-05-08T03:58:24.590Z,17.30
2023-05-08T04:01:13.718Z,17.30
2023-05-08T04:03:52.985Z,17.30
2023-05-08T04:06:30.682Z,17.30
2023-05-08T04:09:22.116Z,17.30
2023-05-08T04:12:14.352Z,17.30
2023-05-08T04:14:49.745Z,17.30
2023-05-08T04:17:30.970Z,17.30
2023-05-08T04:20:04.467Z,17.30
2023-05-08T04:22:33.932Z,17.30
2023-05-08T04:25:04.480Z,17.20
2023-05-08T04:27:31.864Z,17.20
2023-05-08T04:29:59.192Z,17.20
2023-05-08T04:32:27.525Z,17.30
2023-05-08T04:34:55.550Z,17.30
2023-05-08T04:37:27.891Z,17.30
2023-05-08T04:39:57.231Z,17.40
2023-05-08T04:42:25.987Z,17.40
2023-05-08T04:44:54.918Z,17.50
2023-05-08T04:47:22.307Z,17.50
2023-05-08T04:49:49.165Z,17.50
2023-05-08T04:52:16.287Z,17.50
2023-05-08T04:54:43.250Z,17.60
2023-05-08T04:57:10.653Z,17.50
2023-05-08T04:59:37.583Z,17.50
2023-05-08T05:02:08.213Z,17.60
2023-05-08T05:04:36.791Z,17.60
2023-05-08T05:07:04.749Z,17.60
2023-05-08T05:09:35.122Z,17.70
2023-05-08T05:12:01.936Z,17.70
2023-05-08T05:14:30.683Z,17.70
2023-05-08T05:16:58.175Z,17.80
2023-05-08T05:19:25.517Z,17.80
2023-05-08T05:21:52.733Z,17.80
2023-05-08T05:24:19.802Z,17.80
2023-05-08T05:26:46.626Z,17.90
2023-05-08T05:29:13.517Z,17.90
2023-05-08T05:31:40.612Z,17.90
2023-05-08T05:34:08.091Z,18.00
2023-05-08T05:36:35.331Z,18.00
2023-05-08T05:39:03.249Z,18.00
2023-05-08T05:41:30.748Z,18.00
2023-05-08T05:43:57.908Z,18.10
2023-05-08T05:46:32.581Z,18.10
2023-05-08T05:49:02.104Z,18.10
2023-05-08T05:51:29.534Z,18.10
2023-05-08T05:53:57.275Z,18.20
2023-05-08T05:56:25.332Z,18.20
2023-05-08T05:58:52.687Z,18.30
2023-05-08T06:01:20.033Z,18.40
2023-05-08T06:03:47.634Z,18.40
2023-05-08T06:06:14.641Z,18.50
2023-05-08T06:08:41.803Z,18.50
2023-05-08T06:11:08.802Z,18.60
2023-05-08T06:13:36.006Z,18.60
2023-05-08T06:16:02.982Z,18.60
2023-05-08T06:18:30.299Z,18.70
2023-05-08T06:20:58.387Z,18.80
2023-05-08T06:23:26.176Z,18.80
2023-05-08T06:25:54.095Z,18.80
2023-05-08T06:28:22.575Z,18.90
2023-05-08T06:30:49.584Z,18.90
2023-05-08T06:33:16.578Z,19.00
2023-05-08T06:35:47.639Z,19.10
2023-05-08T06:38:14.939Z,19.10
2023-05-08T06:40:43.895Z,19.20
2023-05-08T06:43:11.519Z,19.20
2023-05-08T06:45:38.667Z,19.30
2023-05-08T06:48:06.133Z,19.40
2023-05-08T06:50:33.566Z,19.40
2023-05-08T06:53:00.603Z,19.50
2023-05-08T06:55:27.540Z,19.50
2023-05-08T06:57:54.276Z,19.50
2023-05-08T07:00:21.271Z,19.60
2023-05-08T07:02:48.110Z,19.60
2023-05-08T07:05:15.529Z,19.60
2023-05-08T07:07:42.939Z,19.70
2023-05-08T07:10:10.211Z,19.70
2023-05-08T07:12:37.284Z,19.70
2023-05-08T07:15:13.969Z,19.70
2023-05-08T07:17:45.198Z,19.80
2023-05-08T07:20:12.336Z,19.80
2023-05-08T07:22:39.256Z,19.80
2023-05-08T07:25:06.717Z,19.80
2023-05-08T07:27:33.486Z,19.90
2023-05-08T07:30:04.114Z,19.90
2023-05-08T07:32:33.785Z,20.00
2023-05-08T07:35:02.708Z,20.00
2023-05-08T07:37:29.639Z,20.00
2023-05-08T07:39:56.543Z,20.10
2023-05-08T07:42:23.529Z,20.20
2023-05-08T07:44:54.858Z,20.20
2023-05-08T07:47:22.567Z,20.20
2023-05-08T07:49:49.583Z,20.30
2023-05-08T07:52:16.699Z,20.30
2023-05-08T07:54:43.917Z,20.40
2023-05-08T07:57:11.748Z,20.40
2023-05-08T07:59:38.632Z,20.40
2023-05-08T08:02:05.659Z,20.50
2023-05-08T08:04:32.752Z,20.50
2023-05-08T08:07:02.228Z,20.50
2023-05-08T08:09:29.215Z,20.50
2023-05-08T08:11:56.017Z,20.60
2023-05-08T08:14:22.955Z,20.70
2023-05-08T08:16:49.882Z,20.80
2023-05-08T08:19:16.736Z,20.80
2023-05-08T08:21:44.488Z,20.90
2023-05-08T08:24:11.294Z,20.90
2023-05-08T08:26:38.161Z,21.00
2023-05-08T08:29:05.025Z,20.90
2023-05-08T08:31:31.913Z,21.00
2023-05-08T08:33:58.770Z,21.00
2023-05-08T08:36:25.626Z,21.00
2023-05-08T08:38:53.012Z,21.00
2023-05-08T08:41:19.872Z,21.00
2023-05-08T08:43:46.752Z,21.00
2023-05-08T08:46:15.426Z,21.00
2023-05-08T08:48:47.269Z,21.00
2023-05-08T08:51:31.332Z,21.00
2023-05-08T08:54:05.945Z,21.00
2023-05-08T08:56:33.493Z,20.90
2023-05-08T08:59:01.962Z,20.90
2023-05-08T09:01:30.283Z,21.00
2023-05-08T09:03:59.450Z,21.00
2023-05-08T09:06:27.708Z,21.00
2023-05-08T09:08:58.495Z,21.00
2023-05-08T09:11:25.902Z,21.00
2023-05-08T09:13:52.815Z,21.00
2023-05-08T09:16:19.807Z,21.10
2023-05-08T09:18:46.764Z,21.10
2023-05-08T09:21:13.793Z,21.20
2023-05-08T09:24:00.962Z,21.20
2023-05-08T09:26:28.684Z,21.30
2023-05-08T09:29:16.108Z,21.30
2023-05-08T09:31:51.692Z,21.40
2023-05-08T09:34:29.882Z,21.50
2023-05-08T09:37:14.894Z,21.60
2023-05-08T09:39:43.360Z,21.60
2023-05-08T09:42:10.300Z,21.70
2023-05-08T09:44:50.175Z,21.70
2023-05-08T09:47:20.516Z,21.80
2023-05-08T09:50:03.884Z,22.00
2023-05-08T09:52:32.054Z,22.00
2023-05-08T09:55:00.565Z,22.10
2023-05-08T09:57:28.394Z,22.10
2023-05-08T10:00:28.720Z,22.10
2023-05-08T10:03:03.374Z,22.10
2023-05-08T10:05:32.718Z,22.10
2023-05-08T10:08:18.271Z,22.10
2023-05-08T10:10:45.275Z,22.10
2023-05-08T10:13:12.149Z,22.10
2023-05-08T10:15:44.002Z,22.10
2023-05-08T10:18:12.183Z,22.20
2023-05-08T10:20:40.684Z,22.10
2023-05-08T10:23:11.899Z,22.10
2023-05-08T10:25:45.259Z,22.10
2023-05-08T10:28:33.001Z,22.10
2023-05-08T10:31:05.610Z,22.10
2023-05-08T10:33:34.708Z,22.10
2023-05-08T10:36:02.009Z,22.10
2023-05-08T10:38:30.992Z,22.10
2023-05-08T10:41:01.357Z,22.10
2023-05-08T10:43:31.077Z,22.10
2023-05-08T10:46:02.346Z,22.10
2023-05-08T10:48:45.297Z,22.10
2023-05-08T10:51:52.489Z,22.20
2023-05-08T10:54:26.633Z,22.10
2023-05-08T10:57:08.157Z,22.20
2023-05-08T10:59:36.867Z,22.20
2023-05-08T11:02:08.028Z,22.20
2023-05-08T11:04:36.015Z,22.20
2023-05-08T11:07:04.445Z,22.30
2023-05-08T11:09:47.740Z,22.30
2023-05-08T11:12:22.951Z,22.30
2023-05-08T11:15:06.605Z,22.40
2023-05-08T11:17:35.803Z,22.60
2023-05-08T11:20:05.496Z,22.70
2023-05-08T11:22:33.868Z,22.90
2023-05-08T11:25:02.279Z,23.00
2023-05-08T11:27:41.274Z,23.20
2023-05-08T11:30:26.231Z,23.40
2023-05-08T11:32:59.888Z,23.50
2023-05-08T11:35:54.774Z,23.50
2023-05-08T11:38:24.404Z,23.60
2023-05-08T11:40:58.120Z,23.60
2023-05-08T11:43:38.442Z,23.60
2023-05-08T11:46:10.712Z,23.50
2023-05-08T11:48:37.577Z,23.50
2023-05-08T11:51:04.789Z,23.60
2023-05-08T11:53:33.354Z,23.60
2023-05-08T11:56:00.800Z,23.70
2023-05-08T11:58:27.711Z,23.80
2023-05-08T12:00:55.340Z,23.80
2023-05-08T12:03:25.097Z,23.80
2023-05-08T12:05:56.053Z,23.80
2023-05-08T12:08:23.186Z,23.80
2023-05-08T12:10:57.753Z,23.80
2023-05-08T12:13:25.876Z,23.80
2023-05-08T12:15:54.963Z,23.80
2023-05-08T12:18:23.600Z,23.90
2023-05-08T12:20:56.937Z,24.00
2023-05-08T12:23:25.846Z,24.20
2023-05-08T12:25:55.330Z,24.30
2023-05-08T12:28:22.883Z,24.50
2023-05-08T12:30:50.136Z,24.70
2023-05-08T12:33:17.327Z,24.80
2023-05-08T12:35:44.652Z,24.90
2023-05-08T12:38:13.599Z,25.00
2023-05-08T12:40:44.556Z,25.10
2023-05-08T12:43:11.996Z,25.10
2023-05-08T12:45:41.023Z,25.20
2023-05-08T12:48:13.065Z,25.30
2023-05-08T12:50:47.396Z,25.30
2023-05-08T12:53:18.812Z,25.30
2023-05-08T12:55:55.865Z,25.40
2023-05-08T12:58:32.043Z,25.40
2023-05-08T13:01:11.973Z,25.40
2023-05-08T13:03:40.116Z,25.30
2023-05-08T13:06:07.864Z,25.20
2023-05-08T13:08:37.101Z,25.10
2023-05-08T13:11:06.355Z,25.10
2023-05-08T13:13:35.308Z,25.10
2023-05-08T13:16:06.924Z,25.10
2023-05-08T13:18:36.130Z,25.10
2023-05-08T13:21:03.724Z,25.10
2023-05-08T13:23:31.009Z,25.10
2023-05-08T13:25:57.884Z,25.00
2023-05-08T13:28:24.842Z,25.00
2023-05-08T13:30:51.762Z,24.90
2023-05-08T13:33:18.632Z,24.90
2023-05-08T13:35:45.704Z,24.80
2023-05-08T13:38:12.558Z,24.80
2023-05-08T13:40:39.600Z,24.80
2023-05-08T13:43:06.613Z,24.90
2023-05-08T13:45:33.593Z,24.90
2023-05-08T13:48:00.552Z,25.00
2023-05-08T13:50:27.402Z,25.00
2023-05-08T13:52:55.191Z,24.90
2023-05-08T13:55:23.247Z,24.90
2023-05-08T13:57:50.844Z,24.90
2023-05-08T14:00:18.356Z,24.80
2023-05-08T14:02:45.479Z,24.80
2023-05-08T14:05:12.667Z,24.70
2023-05-08T14:07:39.910Z,24.80
2023-05-08T14:10:07.085Z,24.70
2023-05-08T14:12:36.792Z,24.70
2023-05-08T14:15:07.404Z,24.70
2023-05-08T14:17:34.456Z,24.70
2023-05-08T14:20:01.430Z,24.70
2023-05-08T14:22:28.646Z,24.70
2023-05-08T14:24:55.525Z,24.70
2023-05-08T14:27:22.378Z,24.70
2023-05-08T14:29:49.641Z,24.70
2023-05-08T14:32:16.699Z,24.80
2023-05-08T14:34:43.586Z,24.80
2023-05-08T14:37:11.539Z,24.80
2023-05-08T14:39:38.504Z,24.80
2023-05-08T14:42:22.348Z,24.70
2023-05-08T14:44:50.426Z,24.70
2023-05-08T14:47:17.560Z,24.70
2023-05-08T14:49:44.478Z,24.70
2023-05-08T14:52:11.366Z,24.70
2023-05-08T14:54:38.449Z,24.70
2023-05-08T14:57:05.407Z,24.70
2023-05-08T14:59:32.251Z,24.70
2023-05-08T15:01:59.159Z,24.60
2023-05-08T15:04:26.091Z,24.60
2023-05-08T15:06:53.008Z,24.60
2023-05-08T15:09:19.832Z,24.60
2023-05-08T15:11:46.734Z,24.60
2023-05-08T15:14:13.541Z,24.50
2023-05-08T15:16:40.539Z,24.50
2023-05-08T15:19:09.335Z,24.60
2023-05-08T15:21:36.433Z,24.50
2023-05-08T15:24:03.375Z,24.50
2023-05-08T15:26:30.176Z,24.60
2023-05-08T15:28:57.197Z,24.50
2023-05-08T15:31:24.095Z,24.50
2023-05-08T15:33:51.016Z,24.50
2023-05-08T15:36:18.115Z,24.40
2023-05-08T15:38:44.891Z,24.40
2023-05-08T15:41:15.094Z,24.40
2023-05-08T15:43:43.193Z,24.40
2023-05-08T15:46:10.567Z,24.30
2023-05-08T15:48:37.497Z,24.30
2023-05-08T15:51:04.609Z,24.30
2023-05-08T15:53:33.130Z,24.30
2023-05-08T15:55:59.976Z,24.30
2023-05-08T15:58:27.679Z,24.30
2023-05-08T16:00:54.642Z,24.30
2023-05-08T16:03:21.658Z,24.20
2023-05-08T16:05:48.838Z,24.20
2023-05-08T16:08:15.892Z,24.10
2023-05-08T16:10:42.798Z,24.10
2023-05-08T16:13:09.814Z,24.10
2023-05-08T16:15:36.924Z,24.10
2023-05-08T16:18:03.960Z,24.10
2023-05-08T16:20:32.320Z,24.10
2023-05-08T16:23:00.553Z,24.00
2023-05-08T16:25:27.633Z,24.00
2023-05-08T16:27:54.520Z,24.00
2023-05-08T16:30:21.349Z,23.90
2023-05-08T16:32:48.313Z,23.90
2023-05-08T16:35:15.795Z,23.90
2023-05-08T16:37:43.439Z,23.80
2023-05-08T16:40:10.724Z,23.90
2023-05-08T16:42:37.793Z,23.80
2023-05-08T16:45:08.507Z,23.90
2023-05-08T16:47:36.041Z,23.90
2023-05-08T16:50:04.193Z,23.90
2023-05-08T16:52:32.764Z,23.90
2023-05-08T16:54:59.769Z,23.90
2023-05-08T16:57:27.567Z,23.90
2023-05-08T16:59:56.336Z,23.90
2023-05-08T17:02:23.322Z,23.80
2023-05-08T17:04:50.611Z,23.80
2023-05-08T17:07:17.999Z,23.80
2023-05-08T17:09:45.714Z,23.80
2023-05-08T17:12:12.753Z,23.80
2023-05-08T17:14:40.735Z,23.70
2023-05-08T17:17:08.033Z,23.70
2023-05-08T17:19:34.860Z,23.70
2023-05-08T17:22:02.188Z,23.60
2023-05-08T17:24:32.649Z,23.60
2023-05-08T17:26:59.792Z,23.50
2023-05-08T17:29:26.970Z,23.50
2023-05-08T17:31:54.069Z,23.40
2023-05-08T17:34:22.743Z,23.40
2023-05-08T17:36:50.040Z,23.30
2023-05-08T17:39:19.937Z,23.30
2023-05-08T17:41:48.331Z,23.30
2023-05-08T17:44:15.980Z,23.30
2023-05-08T17:46:42.974Z,23.20
2023-05-08T17:49:10.133Z,23.20
2023-05-08T17:51:37.429Z,23.10
2023-05-08T17:54:04.584Z,23.10
2023-05-08T17:56:31.951Z,23.00
2023-05-08T17:58:58.889Z,23.00
2023-05-08T18:01:26.196Z,22.90
2023-05-08T18:03:53.760Z,22.80
2023-05-08T18:06:20.943Z,22.80
2023-05-08T18:08:48.391Z,22.80
2023-05-08T18:11:24.354Z,22.80
2023-05-08T18:13:53.249Z,22.80
2023-05-08T18:16:21.710Z,22.80
2023-05-08T18:18:49.695Z,22.80
2023-05-08T18:21:16.658Z,22.70
2023-05-08T18:23:44.239Z,22.70
2023-05-08T18:26:17.512Z,22.70
2023-05-08T18:28:44.757Z,22.70
2023-05-08T18:31:13.478Z,22.70
2023-05-08T18:33:40.651Z,22.70
2023-05-08T18:36:07.556Z,22.70
2023-05-08T18:38:34.947Z,22.70
2023-05-08T18:41:03.366Z,22.70
2023-05-08T18:43:30.326Z,22.70
2023-05-08T18:45:59.095Z,22.60
2023-05-08T18:48:27.317Z,22.60
2023-05-08T18:50:58.383Z,22.60
2023-05-08T18:53:25.488Z,22.60
2023-05-08T18:55:52.943Z,22.60
2023-05-08T18:58:19.886Z,22.50
2023-05-08T19:00:46.804Z,22.50
2023-05-08T19:03:14.003Z,22.50
2023-05-08T19:05:41.930Z,22.50
2023-05-08T19:08:08.772Z,22.40
2023-05-08T19:10:35.819Z,22.40
2023-05-08T19:13:02.812Z,22.40
2023-05-08T19:15:29.671Z,22.30
2023-05-08T19:17:56.588Z,22.30
2023-05-08T19:20:23.601Z,22.20
2023-05-08T19:22:50.615Z,22.20
2023-05-08T19:25:17.613Z,22.20
2023-05-08T19:27:44.425Z,22.10
2023-05-08T19:30:12.111Z,22.10
2023-05-08T19:32:39.606Z,22.00
2023-05-08T19:35:08.210Z,22.00
2023-05-08T19:37:35.917Z,21.90
2023-05-08T19:40:02.987Z,21.90
2023-05-08T19:42:29.958Z,21.90
2023-05-08T19:44:56.774Z,21.80
2023-05-08T19:47:23.727Z,21.80
2023-05-08T19:49:51.296Z,21.70
2023-05-08T19:52:18.241Z,21.60
2023-05-08T19:54:45.721Z,21.60
2023-05-08T19:57:13.520Z,21.50
2023-05-08T19:59:40.462Z,21.50
2023-05-08T20:02:07.609Z,21.50
2023-05-08T20:04:48.552Z,21.40
2023-05-08T20:07:21.360Z,21.40
2023-05-08T20:09:48.266Z,21.30
2023-05-08T20:12:15.024Z,21.30
2023-05-08T20:14:41.942Z,21.30
2023-05-08T20:17:08.870Z,21.20
2023-05-08T20:19:35.836Z,21.20
2023-05-08T20:22:02.723Z,21.20
2023-05-08T20:24:29.736Z,21.20
2023-05-08T20:26:56.691Z,21.20
2023-05-08T20:29:24.209Z,21.20
2023-05-08T20:31:51.996Z,21.20
2023-05-08T20:34:21.692Z,21.20
2023-05-08T20:36:48.962Z,21.20
2023-05-08T20:39:15.910Z,21.20
2023-05-08T20:41:42.765Z,21.20
2023-05-08T20:44:09.752Z,21.20
2023-05-08T20:46:37.005Z,21.20
2023-05-08T20:49:04.083Z,21.30
2023-05-08T20:51:31.906Z,21.30
2023-05-08T20:53:58.879Z,21.30
2023-05-08T20:56:25.798Z,21.30
2023-05-08T20:58:52.576Z,21.30
2023-05-08T21:01:21.024Z,21.30
2023-05-08T21:03:48.158Z,21.20
2023-05-08T21:06:15.227Z,21.20
2023-05-08T21:08:42.004Z,21.20
2023-05-08T21:11:08.958Z,21.20
2023-05-08T21:13:35.825Z,21.20
2023-05-08T21:16:02.892Z,21.20
2023-05-08T21:18:29.718Z,21.20
2023-05-08T21:20:56.585Z,21.20
2023-05-08T21:23:23.405Z,21.20
2023-05-08T21:25:50.689Z,21.10
2023-05-08T21:28:17.694Z,21.10
2023-05-08T21:30:45.244Z,21.10
2023-05-08T21:33:16.338Z,21.10
2023-05-08T21:35:43.640Z,21.10
2023-05-08T21:38:12.161Z,21.00
2023-05-08T21:40:39.283Z,21.00
2023-05-08T21:43:06.276Z,21.00
2023-05-08T21:45:33.368Z,21.00
2023-05-08T21:48:00.602Z,20.90
2023-05-08T21:50:30.986Z,20.90
2023-05-08T21:52:57.852Z,20.90
2023-05-08T21:55:24.917Z,20.90
2023-05-08T21:57:52.079Z,20.90
2023-05-08T22:00:20.045Z,20.80
2023-05-08T22:02:47.070Z,20.80
2023-05-08T22:05:14.700Z,20.80
2023-05-08T22:07:41.941Z,20.80
2023-05-08T22:10:10.431Z,20.80
2023-05-08T22:12:37.545Z,20.80
2023-05-08T22:15:09.419Z,20.80
2023-05-08T22:17:36.634Z,20.70
2023-05-08T22:20:03.985Z,20.70
2023-05-08T22:22:30.947Z,20.70
2023-05-08T22:24:57.865Z,20.70
2023-05-08T22:27:24.762Z,20.60
2023-05-08T22:29:51.715Z,20.60
2023-05-08T22:32:18.717Z,20.50
2023-05-08T22:34:46.492Z,20.50
2023-05-08T22:37:13.332Z,20.50
2023-05-08T22:39:40.354Z,20.50
2023-05-08T22:42:07.277Z,20.50
2023-05-08T22:44:34.265Z,20.50
2023-05-08T22:47:01.595Z,20.40
2023-05-08T22:49:29.302Z,20.40
2023-05-08T22:51:56.234Z,20.30
2023-05-08T22:54:23.070Z,20.30
2023-05-08T22:56:49.975Z,20.20
2023-05-08T22:59:16.852Z,20.10
2023-05-08T23:01:43.779Z,20.10
2023-05-08T23:04:10.689Z,20.00
2023-05-08T23:06:37.635Z,20.00
2023-05-08T23:09:04.770Z,19.90
2023-05-08T23:11:31.807Z,19.90
2023-05-08T23:13:58.676Z,19.90
2023-05-08T23:16:25.861Z,19.80
2023-05-08T23:18:53.144Z,19.80
2023-05-08T23:21:20.056Z,19.80
2023-05-08T23:23:48.077Z,19.70
2023-05-08T23:26:15.139Z,19.70
2023-05-08T23:28:42.091Z,19.60
2023-05-08T23:31:08.986Z,19.60
2023-05-08T23:33:35.908Z,19.50
2023-05-08T23:36:02.752Z,19.50
2023-05-08T23:38:29.605Z,19.50
2023-05-08T23:40:56.426Z,19.50
2023-05-08T23:43:23.262Z,19.50
2023-05-08T23:45:50.031Z,19.50
2023-05-08T23:48:17.237Z,19.40
2023-05-08T23:50:44.110Z,19.40
2023-05-08T23:53:11.077Z,19.40
2023-05-08T23:55:38.056Z,19.50
2023-05-08T23:58:05.080Z,19.60
